Pagrindinis puslapis
METAR-TAF:

METAR-TAF

Oro uostai :

Tan Son Nhat oro uostas

Hošiminas, Vietnamas

platuma: 10-49N, ilguma: 106-40E, Aukštis: 19 m

Dabartinis oras

Ataskaita buvo paskelbta 22 minutes, ne 23:30 UTC
Vėjas 6 kt iš Rytų/Pietryčių, svyruoja nuo Rytų ir Pietų/Pietryčių
Temperatūra 28°C
Drėgmė 84%
Slėgis 1011 hPa
Matomumas 10 km arba daugiau
Mažai debesys ne aukštis 1500 ft
Išsisklaidę debesys ne aukštis 5000 ft

METAR: VVTS 052330Z 12006KT 100V160 9999 FEW015 SCT050 28/25 Q1011 NOSIG

Laikas: 06:52 (23:52 UTC)

Prognozė

Ataskaita buvo paskelbta 52 minutes, ne 23:00 UTC
Prognozė galioja nuo 06 metu 00 UTC su 07 metu 06 UTC
Vėjas 12 kt iš Pietryčių
Matomumas 10 km arba daugiau
Mažai debesys ne aukštis 1700 ft

TAF: VVTS 052300Z 0600/0706 14012KT 9999 FEW017

Orai ataskaitas ir orų prognozės (METAR, TAF).

turimą stotys yra geltonos ir raudonos taškus žemėlapyje.

Perkelti pele per norėdami pamatyti stoties vardą.

Tada spustelėkite, norėdami matyti oro stebėjimo ir prognozės.

Norėdami pakeisti žemėlapį: spustelėkite ant žalios mygtukų su juodo kryžiaus žemyn,; žalią mygtuką su brūkšneliu, jei norite nutolinti; arba žalių rodyklių gretimoms žemėlapius.


METAR-TAF: